sensor_id;sensor_type;location;lat;lon;timestamp;temperature;humidity
3350;DHT22;1688;51.000;13.684;2022-12-07T00:01:29;3.80;99.90
3350;DHT22;1688;51.000;13.684;2022-12-07T00:04:03;3.90;99.90
3350;DHT22;1688;51.000;13.684;2022-12-07T00:06:42;3.90;99.90
3350;DHT22;1688;51.000;13.684;2022-12-07T00:09:15;4.00;99.90
3350;DHT22;1688;51.000;13.684;2022-12-07T00:11:49;4.00;99.90
3350;DHT22;1688;51.000;13.684;2022-12-07T00:14:21;3.90;99.90
3350;DHT22;1688;51.000;13.684;2022-12-07T00:16:53;3.80;99.90
3350;DHT22;1688;51.000;13.684;2022-12-07T00:19:25;3.80;99.90
3350;DHT22;1688;51.000;13.684;2022-12-07T00:21:56;3.80;99.90
3350;DHT22;1688;51.000;13.684;2022-12-07T00:24:28;3.90;99.90
3350;DHT22;1688;51.000;13.684;2022-12-07T00:27:00;3.90;99.90
3350;DHT22;1688;51.000;13.684;2022-12-07T00:29:31;3.90;99.90
3350;DHT22;1688;51.000;13.684;2022-12-07T00:32:03;3.90;99.90
3350;DHT22;1688;51.000;13.684;2022-12-07T00:34:35;3.90;99.90
3350;DHT22;1688;51.000;13.684;2022-12-07T00:37:06;3.90;99.90
3350;DHT22;1688;51.000;13.684;2022-12-07T00:39:38;3.90;99.90
3350;DHT22;1688;51.000;13.684;2022-12-07T00:42:10;3.90;99.90
3350;DHT22;1688;51.000;13.684;2022-12-07T00:44:41;3.90;99.90
3350;DHT22;1688;51.000;13.684;2022-12-07T00:47:13;3.90;99.90
3350;DHT22;1688;51.000;13.684;2022-12-07T00:49:45;4.00;99.90
3350;DHT22;1688;51.000;13.684;2022-12-07T00:52:16;4.10;99.90
3350;DHT22;1688;51.000;13.684;2022-12-07T00:54:48;4.00;99.90
3350;DHT22;1688;51.000;13.684;2022-12-07T00:57:19;4.00;99.90
3350;DHT22;1688;51.000;13.684;2022-12-07T00:59:51;4.00;99.90
3350;DHT22;1688;51.000;13.684;2022-12-07T01:02:26;4.00;99.90
3350;DHT22;1688;51.000;13.684;2022-12-07T01:04:58;4.00;99.90
3350;DHT22;1688;51.000;13.684;2022-12-07T01:07:30;3.90;99.90
3350;DHT22;1688;51.000;13.684;2022-12-07T01:10:01;4.00;99.90
3350;DHT22;1688;51.000;13.684;2022-12-07T01:12:33;4.00;99.90
3350;DHT22;1688;51.000;13.684;2022-12-07T01:15:05;4.10;99.90
3350;DHT22;1688;51.000;13.684;2022-12-07T01:17:37;4.00;99.90
3350;DHT22;1688;51.000;13.684;2022-12-07T01:20:09;3.90;99.90
3350;DHT22;1688;51.000;13.684;2022-12-07T01:22:42;3.90;99.90
3350;DHT22;1688;51.000;13.684;2022-12-07T01:25:14;4.00;99.90
3350;DHT22;1688;51.000;13.684;2022-12-07T01:27:45;4.00;99.90
3350;DHT22;1688;51.000;13.684;2022-12-07T01:30:17;3.90;99.90
3350;DHT22;1688;51.000;13.684;2022-12-07T01:32:48;3.90;99.90
3350;DHT22;1688;51.000;13.684;2022-12-07T01:35:20;3.70;99.90
3350;DHT22;1688;51.000;13.684;2022-12-07T01:37:52;3.70;99.90
3350;DHT22;1688;51.000;13.684;2022-12-07T01:40:23;3.60;99.90
3350;DHT22;1688;51.000;13.684;2022-12-07T01:42:55;3.60;99.90
3350;DHT22;1688;51.000;13.684;2022-12-07T01:45:41;3.50;99.90
3350;DHT22;1688;51.000;13.684;2022-12-07T01:48:15;3.50;99.90
3350;DHT22;1688;51.000;13.684;2022-12-07T01:50:49;3.50;99.90
3350;DHT22;1688;51.000;13.684;2022-12-07T01:53:24;3.50;99.90
3350;DHT22;1688;51.000;13.684;2022-12-07T01:55:57;3.60;99.90
3350;DHT22;1688;51.000;13.684;2022-12-07T01:58:30;3.60;99.90
3350;DHT22;1688;51.000;13.684;2022-12-07T02:01:03;3.60;99.90
3350;DHT22;1688;51.000;13.684;2022-12-07T02:03:39;3.50;99.90
3350;DHT22;1688;51.000;13.684;2022-12-07T02:06:15;3.40;99.90
3350;DHT22;1688;51.000;13.684;2022-12-07T02:08:47;3.20;99.90
3350;DHT22;1688;51.000;13.684;2022-12-07T02:11:20;3.20;99.90
3350;DHT22;1688;51.000;13.684;2022-12-07T02:13:53;3.10;99.90
3350;DHT22;1688;51.000;13.684;2022-12-07T02:22:50;3.30;99.90
3350;DHT22;1688;51.000;13.684;2022-12-07T02:28:31;3.30;99.90
3350;DHT22;1688;51.000;13.684;2022-12-07T02:31:12;3.30;99.90
3350;DHT22;1688;51.000;13.684;2022-12-07T02:34:09;3.20;99.90
3350;DHT22;1688;51.000;13.684;2022-12-07T02:36:46;3.30;99.90
3350;DHT22;1688;51.000;13.684;2022-12-07T02:39:44;3.30;99.90
3350;DHT22;1688;51.000;13.684;2022-12-07T02:42:23;3.30;99.90
3350;DHT22;1688;51.000;13.684;2022-12-07T02:44:56;3.30;99.90
3350;DHT22;1688;51.000;13.684;2022-12-07T02:47:28;3.40;99.90
3350;DHT22;1688;51.000;13.684;2022-12-07T02:50:04;3.30;99.90
3350;DHT22;1688;51.000;13.684;2022-12-07T02:52:36;3.30;99.90
3350;DHT22;1688;51.000;13.684;2022-12-07T02:55:08;3.20;99.90
3350;DHT22;1688;51.000;13.684;2022-12-07T03:00:41;3.20;99.90
3350;DHT22;1688;51.000;13.684;2022-12-07T03:03:15;3.20;99.90
3350;DHT22;1688;51.000;13.684;2022-12-07T03:08:51;3.20;99.90
3350;DHT22;1688;51.000;13.684;2022-12-07T03:12:00;3.10;99.90
3350;DHT22;1688;51.000;13.684;2022-12-07T03:14:41;3.10;99.90
3350;DHT22;1688;51.000;13.684;2022-12-07T03:17:21;3.00;99.90
3350;DHT22;1688;51.000;13.684;2022-12-07T03:20:02;3.00;99.90
3350;DHT22;1688;51.000;13.684;2022-12-07T03:22:37;3.10;99.90
3350;DHT22;1688;51.000;13.684;2022-12-07T03:25:11;3.10;99.90
3350;DHT22;1688;51.000;13.684;2022-12-07T03:27:49;3.10;99.90
3350;DHT22;1688;51.000;13.684;2022-12-07T03:30:37;3.10;99.90
3350;DHT22;1688;51.000;13.684;2022-12-07T03:33:17;3.10;99.90
3350;DHT22;1688;51.000;13.684;2022-12-07T03:36:21;3.00;99.90
3350;DHT22;1688;51.000;13.684;2022-12-07T03:41:54;3.00;99.90
3350;DHT22;1688;51.000;13.684;2022-12-07T03:44:27;3.00;99.90
3350;DHT22;1688;51.000;13.684;2022-12-07T03:47:47;3.00;99.90
3350;DHT22;1688;51.000;13.684;2022-12-07T03:53:09;3.10;99.90
3350;DHT22;1688;51.000;13.684;2022-12-07T03:55:43;3.10;99.90
3350;DHT22;1688;51.000;13.684;2022-12-07T03:58:19;3.00;99.90
3350;DHT22;1688;51.000;13.684;2022-12-07T04:00:52;2.90;99.90
3350;DHT22;1688;51.000;13.684;2022-12-07T04:03:23;2.90;99.90
3350;DHT22;1688;51.000;13.684;2022-12-07T04:05:55;2.90;99.90
3350;DHT22;1688;51.000;13.684;2022-12-07T04:08:27;2.90;99.90
3350;DHT22;1688;51.000;13.684;2022-12-07T04:10:59;2.80;99.90
3350;DHT22;1688;51.000;13.684;2022-12-07T04:13:30;2.80;99.90
3350;DHT22;1688;51.000;13.684;2022-12-07T04:16:22;2.80;99.90
3350;DHT22;1688;51.000;13.684;2022-12-07T04:18:54;2.80;99.90
3350;DHT22;1688;51.000;13.684;2022-12-07T04:21:25;2.70;99.90
3350;DHT22;1688;51.000;13.684;2022-12-07T04:23:57;2.60;99.90
3350;DHT22;1688;51.000;13.684;2022-12-07T04:26:28;2.60;99.90
3350;DHT22;1688;51.000;13.684;2022-12-07T04:29:00;2.60;99.90
3350;DHT22;1688;51.000;13.684;2022-12-07T04:31:32;2.60;99.90
3350;DHT22;1688;51.000;13.684;2022-12-07T04:34:04;2.60;99.90
3350;DHT22;1688;51.000;13.684;2022-12-07T04:36:36;2.60;99.90
3350;DHT22;1688;51.000;13.684;2022-12-07T04:39:18;2.60;99.90
3350;DHT22;1688;51.000;13.684;2022-12-07T04:41:50;2.50;99.90
3350;DHT22;1688;51.000;13.684;2022-12-07T04:44:22;2.50;99.90
3350;DHT22;1688;51.000;13.684;2022-12-07T04:46:55;2.50;99.90
3350;DHT22;1688;51.000;13.684;2022-12-07T04:49:27;2.50;99.90
3350;DHT22;1688;51.000;13.684;2022-12-07T04:51:58;2.40;99.90
3350;DHT22;1688;51.000;13.684;2022-12-07T04:54:30;2.40;99.90
3350;DHT22;1688;51.000;13.684;2022-12-07T04:57:01;2.50;99.90
3350;DHT22;1688;51.000;13.684;2022-12-07T04:59:33;2.40;99.90
3350;DHT22;1688;51.000;13.684;2022-12-07T05:02:05;2.50;99.90
3350;DHT22;1688;51.000;13.684;2022-12-07T05:04:36;2.50;99.90
3350;DHT22;1688;51.000;13.684;2022-12-07T05:07:08;2.50;99.90
3350;DHT22;1688;51.000;13.684;2022-12-07T05:09:40;2.40;99.90
3350;DHT22;1688;51.000;13.684;2022-12-07T05:12:11;2.30;99.90
3350;DHT22;1688;51.000;13.684;2022-12-07T05:14:43;2.40;99.90
3350;DHT22;1688;51.000;13.684;2022-12-07T05:17:14;2.30;99.90
3350;DHT22;1688;51.000;13.684;2022-12-07T05:19:46;2.30;99.90
3350;DHT22;1688;51.000;13.684;2022-12-07T05:22:18;2.20;99.90
3350;DHT22;1688;51.000;13.684;2022-12-07T05:24:49;2.20;99.90
3350;DHT22;1688;51.000;13.684;2022-12-07T05:27:21;2.20;99.90
3350;DHT22;1688;51.000;13.684;2022-12-07T05:29:53;2.20;99.90
3350;DHT22;1688;51.000;13.684;2022-12-07T05:32:24;2.30;99.90
3350;DHT22;1688;51.000;13.684;2022-12-07T05:34:56;2.30;99.90
3350;DHT22;1688;51.000;13.684;2022-12-07T05:37:28;2.40;99.90
3350;DHT22;1688;51.000;13.684;2022-12-07T05:39:59;2.40;99.90
3350;DHT22;1688;51.000;13.684;2022-12-07T05:42:31;2.30;99.90
3350;DHT22;1688;51.000;13.684;2022-12-07T05:45:04;2.40;99.90
3350;DHT22;1688;51.000;13.684;2022-12-07T05:47:36;2.40;99.90
3350;DHT22;1688;51.000;13.684;2022-12-07T05:50:08;2.50;99.90
3350;DHT22;1688;51.000;13.684;2022-12-07T05:52:39;2.50;99.90
3350;DHT22;1688;51.000;13.684;2022-12-07T05:55:11;2.50;99.90
3350;DHT22;1688;51.000;13.684;2022-12-07T05:57:43;2.50;99.90
3350;DHT22;1688;51.000;13.684;2022-12-07T06:00:34;2.50;99.90
3350;DHT22;1688;51.000;13.684;2022-12-07T06:03:06;2.50;99.90
3350;DHT22;1688;51.000;13.684;2022-12-07T06:05:37;2.60;99.90
3350;DHT22;1688;51.000;13.684;2022-12-07T06:08:09;2.60;99.90
3350;DHT22;1688;51.000;13.684;2022-12-07T06:10:41;2.70;99.90
3350;DHT22;1688;51.000;13.684;2022-12-07T06:13:13;2.70;99.90
3350;DHT22;1688;51.000;13.684;2022-12-07T06:15:44;2.60;99.90
3350;DHT22;1688;51.000;13.684;2022-12-07T06:18:16;2.70;99.90
3350;DHT22;1688;51.000;13.684;2022-12-07T06:20:48;2.70;99.90
3350;DHT22;1688;51.000;13.684;2022-12-07T06:23:19;2.70;99.90
3350;DHT22;1688;51.000;13.684;2022-12-07T06:25:51;2.70;99.90
3350;DHT22;1688;51.000;13.684;2022-12-07T06:28:22;2.70;99.90
3350;DHT22;1688;51.000;13.684;2022-12-07T06:31:01;2.80;99.90
3350;DHT22;1688;51.000;13.684;2022-12-07T06:33:33;2.80;99.90
3350;DHT22;1688;51.000;13.684;2022-12-07T06:36:05;2.90;99.90
3350;DHT22;1688;51.000;13.684;2022-12-07T06:38:36;2.90;99.90
3350;DHT22;1688;51.000;13.684;2022-12-07T06:41:08;2.90;99.90
3350;DHT22;1688;51.000;13.684;2022-12-07T06:43:40;3.00;99.90
3350;DHT22;1688;51.000;13.684;2022-12-07T06:46:13;3.10;99.90
3350;DHT22;1688;51.000;13.684;2022-12-07T06:48:45;3.10;99.90
3350;DHT22;1688;51.000;13.684;2022-12-07T06:51:17;3.00;99.90
3350;DHT22;1688;51.000;13.684;2022-12-07T06:53:48;3.00;99.90
3350;DHT22;1688;51.000;13.684;2022-12-07T06:56:20;2.90;99.90
3350;DHT22;1688;51.000;13.684;2022-12-07T06:58:52;2.90;99.90
3350;DHT22;1688;51.000;13.684;2022-12-07T07:01:23;2.90;99.90
3350;DHT22;1688;51.000;13.684;2022-12-07T07:03:55;2.90;99.90
3350;DHT22;1688;51.000;13.684;2022-12-07T07:06:27;3.00;99.90
3350;DHT22;1688;51.000;13.684;2022-12-07T07:08:58;3.00;99.90
3350;DHT22;1688;51.000;13.684;2022-12-07T07:11:30;3.00;99.90
3350;DHT22;1688;51.000;13.684;2022-12-07T07:14:02;3.00;99.90
3350;DHT22;1688;51.000;13.684;2022-12-07T07:16:33;3.00;99.90
3350;DHT22;1688;51.000;13.684;2022-12-07T07:19:05;2.90;99.90
3350;DHT22;1688;51.000;13.684;2022-12-07T07:21:37;2.80;99.90
3350;DHT22;1688;51.000;13.684;2022-12-07T07:24:08;2.70;99.90
3350;DHT22;1688;51.000;13.684;2022-12-07T07:26:40;2.60;99.90
3350;DHT22;1688;51.000;13.684;2022-12-07T07:29:12;2.50;99.90
3350;DHT22;1688;51.000;13.684;2022-12-07T07:31:43;2.50;99.90
3350;DHT22;1688;51.000;13.684;2022-12-07T07:34:15;2.50;99.90
3350;DHT22;1688;51.000;13.684;2022-12-07T07:36:46;2.50;99.90
3350;DHT22;1688;51.000;13.684;2022-12-07T07:39:18;2.60;99.90
3350;DHT22;1688;51.000;13.684;2022-12-07T07:41:50;2.60;99.90
3350;DHT22;1688;51.000;13.684;2022-12-07T07:44:21;2.60;99.90
3350;DHT22;1688;51.000;13.684;2022-12-07T07:46:53;2.60;99.90
3350;DHT22;1688;51.000;13.684;2022-12-07T07:49:25;2.70;99.90
3350;DHT22;1688;51.000;13.684;2022-12-07T07:51:56;2.70;99.90
3350;DHT22;1688;51.000;13.684;2022-12-07T07:54:28;2.70;99.90
3350;DHT22;1688;51.000;13.684;2022-12-07T07:57:00;2.80;99.90
3350;DHT22;1688;51.000;13.684;2022-12-07T07:59:31;2.90;99.90
3350;DHT22;1688;51.000;13.684;2022-12-07T08:02:03;2.90;99.90
3350;DHT22;1688;51.000;13.684;2022-12-07T08:04:36;3.00;99.90
3350;DHT22;1688;51.000;13.684;2022-12-07T08:07:07;3.10;99.90
3350;DHT22;1688;51.000;13.684;2022-12-07T08:09:39;3.10;99.90
3350;DHT22;1688;51.000;13.684;2022-12-07T08:12:11;3.10;99.90
3350;DHT22;1688;51.000;13.684;2022-12-07T08:14:42;3.10;99.90
3350;DHT22;1688;51.000;13.684;2022-12-07T08:17:14;3.20;99.90
3350;DHT22;1688;51.000;13.684;2022-12-07T08:19:46;3.20;99.90
3350;DHT22;1688;51.000;13.684;2022-12-07T08:22:17;3.30;99.90
3350;DHT22;1688;51.000;13.684;2022-12-07T08:24:50;3.40;99.90
3350;DHT22;1688;51.000;13.684;2022-12-07T08:27:22;3.40;99.90
3350;DHT22;1688;51.000;13.684;2022-12-07T08:29:58;3.40;99.90
3350;DHT22;1688;51.000;13.684;2022-12-07T08:32:29;3.40;99.90
3350;DHT22;1688;51.000;13.684;2022-12-07T08:35:01;3.40;99.90
3350;DHT22;1688;51.000;13.684;2022-12-07T08:37:33;3.40;99.90
3350;DHT22;1688;51.000;13.684;2022-12-07T08:40:08;3.40;99.90
3350;DHT22;1688;51.000;13.684;2022-12-07T08:42:40;3.40;99.90
3350;DHT22;1688;51.000;13.684;2022-12-07T08:45:13;3.50;99.90
3350;DHT22;1688;51.000;13.684;2022-12-07T08:47:50;3.50;99.90
3350;DHT22;1688;51.000;13.684;2022-12-07T08:50:24;3.60;99.90
3350;DHT22;1688;51.000;13.684;2022-12-07T08:52:58;3.60;99.90
3350;DHT22;1688;51.000;13.684;2022-12-07T08:55:30;3.60;99.90
3350;DHT22;1688;51.000;13.684;2022-12-07T08:58:03;3.70;99.90
3350;DHT22;1688;51.000;13.684;2022-12-07T09:00:35;3.70;99.90
3350;DHT22;1688;51.000;13.684;2022-12-07T09:03:06;3.70;99.90
3350;DHT22;1688;51.000;13.684;2022-12-07T09:05:38;3.70;99.90
3350;DHT22;1688;51.000;13.684;2022-12-07T09:08:10;3.80;99.90
3350;DHT22;1688;51.000;13.684;2022-12-07T09:10:41;3.80;99.90
3350;DHT22;1688;51.000;13.684;2022-12-07T09:13:13;3.80;99.90
3350;DHT22;1688;51.000;13.684;2022-12-07T09:15:45;3.80;99.90
3350;DHT22;1688;51.000;13.684;2022-12-07T09:18:17;3.90;99.90
3350;DHT22;1688;51.000;13.684;2022-12-07T09:20:48;3.90;99.90
3350;DHT22;1688;51.000;13.684;2022-12-07T09:23:20;4.00;99.90
3350;DHT22;1688;51.000;13.684;2022-12-07T09:25:52;4.00;99.90
3350;DHT22;1688;51.000;13.684;2022-12-07T09:28:23;4.00;99.90
3350;DHT22;1688;51.000;13.684;2022-12-07T09:30:55;4.10;99.90
3350;DHT22;1688;51.000;13.684;2022-12-07T09:33:27;4.10;99.90
3350;DHT22;1688;51.000;13.684;2022-12-07T09:35:58;4.10;99.90
3350;DHT22;1688;51.000;13.684;2022-12-07T09:38:30;4.10;99.90
3350;DHT22;1688;51.000;13.684;2022-12-07T09:41:06;4.10;99.90
3350;DHT22;1688;51.000;13.684;2022-12-07T09:43:39;4.10;99.90
3350;DHT22;1688;51.000;13.684;2022-12-07T09:46:14;4.20;99.90
3350;DHT22;1688;51.000;13.684;2022-12-07T09:48:48;4.40;99.90
3350;DHT22;1688;51.000;13.684;2022-12-07T09:51:22;4.50;99.90
3350;DHT22;1688;51.000;13.684;2022-12-07T09:53:57;4.50;99.90
3350;DHT22;1688;51.000;13.684;2022-12-07T09:56:29;4.60;99.90
3350;DHT22;1688;51.000;13.684;2022-12-07T09:59:03;4.70;99.90
3350;DHT22;1688;51.000;13.684;2022-12-07T10:01:34;4.80;99.90
3350;DHT22;1688;51.000;13.684;2022-12-07T10:04:16;4.90;99.90
3350;DHT22;1688;51.000;13.684;2022-12-07T10:06:48;5.00;99.90
3350;DHT22;1688;51.000;13.684;2022-12-07T10:09:22;5.00;99.90
3350;DHT22;1688;51.000;13.684;2022-12-07T10:12:08;5.00;99.90
3350;DHT22;1688;51.000;13.684;2022-12-07T10:14:54;4.90;99.90
3350;DHT22;1688;51.000;13.684;2022-12-07T10:17:30;4.90;99.90
3350;DHT22;1688;51.000;13.684;2022-12-07T10:23:00;4.80;99.90
3350;DHT22;1688;51.000;13.684;2022-12-07T10:25:35;4.90;99.90
3350;DHT22;1688;51.000;13.684;2022-12-07T10:30:49;5.00;99.90
3350;DHT22;1688;51.000;13.684;2022-12-07T10:36:33;5.20;99.90
3350;DHT22;1688;51.000;13.684;2022-12-07T10:39:13;5.20;99.90
3350;DHT22;1688;51.000;13.684;2022-12-07T10:42:02;5.10;99.90
3350;DHT22;1688;51.000;13.684;2022-12-07T10:44:34;5.10;99.90
3350;DHT22;1688;51.000;13.684;2022-12-07T10:52:46;5.10;99.90
3350;DHT22;1688;51.000;13.684;2022-12-07T10:58:48;4.90;99.90
3350;DHT22;1688;51.000;13.684;2022-12-07T11:15:18;5.10;99.90
3350;DHT22;1688;51.000;13.684;2022-12-07T11:23:49;5.30;99.90
3350;DHT22;1688;51.000;13.684;2022-12-07T11:38:15;4.90;99.90
3350;DHT22;1688;51.000;13.684;2022-12-07T11:40:55;4.80;99.90
3350;DHT22;1688;51.000;13.684;2022-12-07T11:46:56;4.70;99.90
3350;DHT22;1688;51.000;13.684;2022-12-07T11:49:42;4.70;99.90
3350;DHT22;1688;51.000;13.684;2022-12-07T11:52:27;4.60;99.90
3350;DHT22;1688;51.000;13.684;2022-12-07T11:55:16;4.50;99.90
3350;DHT22;1688;51.000;13.684;2022-12-07T11:57:56;4.50;99.90
3350;DHT22;1688;51.000;13.684;2022-12-07T12:00:29;4.40;99.90
3350;DHT22;1688;51.000;13.684;2022-12-07T12:03:11;4.40;99.90
3350;DHT22;1688;51.000;13.684;2022-12-07T12:05:43;4.40;99.90
3350;DHT22;1688;51.000;13.684;2022-12-07T12:08:27;4.40;99.90
3350;DHT22;1688;51.000;13.684;2022-12-07T12:22:44;4.60;99.90
3350;DHT22;1688;51.000;13.684;2022-12-07T12:25:41;4.70;99.90
3350;DHT22;1688;51.000;13.684;2022-12-07T12:28:22;4.70;99.90
3350;DHT22;1688;51.000;13.684;2022-12-07T12:33:53;4.60;99.90
3350;DHT22;1688;51.000;13.684;2022-12-07T12:39:09;4.40;99.90
3350;DHT22;1688;51.000;13.684;2022-12-07T12:46:57;4.20;99.90
3350;DHT22;1688;51.000;13.684;2022-12-07T12:49:34;4.20;99.90
3350;DHT22;1688;51.000;13.684;2022-12-07T12:57:31;4.20;99.90
3350;DHT22;1688;51.000;13.684;2022-12-07T13:00:16;4.20;99.90
3350;DHT22;1688;51.000;13.684;2022-12-07T13:02:55;4.20;99.90
3350;DHT22;1688;51.000;13.684;2022-12-07T13:05:30;4.20;99.90
3350;DHT22;1688;51.000;13.684;2022-12-07T13:08:17;4.30;99.90
3350;DHT22;1688;51.000;13.684;2022-12-07T13:10:51;4.30;99.90
3350;DHT22;1688;51.000;13.684;2022-12-07T13:18:38;4.30;99.90
3350;DHT22;1688;51.000;13.684;2022-12-07T13:34:39;4.30;99.90
3350;DHT22;1688;51.000;13.684;2022-12-07T13:39:57;4.50;99.90
3350;DHT22;1688;51.000;13.684;2022-12-07T13:42:34;4.70;99.90
3350;DHT22;1688;51.000;13.684;2022-12-07T13:45:23;4.70;99.90
3350;DHT22;1688;51.000;13.684;2022-12-07T13:48:27;4.80;99.90
3350;DHT22;1688;51.000;13.684;2022-12-07T13:51:03;4.80;99.90
3350;DHT22;1688;51.000;13.684;2022-12-07T13:53:50;4.80;99.90
3350;DHT22;1688;51.000;13.684;2022-12-07T13:56:34;4.80;99.90
3350;DHT22;1688;51.000;13.684;2022-12-07T13:59:18;4.80;99.90
3350;DHT22;1688;51.000;13.684;2022-12-07T14:01:52;4.90;99.90
3350;DHT22;1688;51.000;13.684;2022-12-07T14:06:55;5.00;99.90
3350;DHT22;1688;51.000;13.684;2022-12-07T14:09:28;5.00;99.90
3350;DHT22;1688;51.000;13.684;2022-12-07T14:12:05;5.10;99.90
3350;DHT22;1688;51.000;13.684;2022-12-07T14:14:37;5.10;99.90
3350;DHT22;1688;51.000;13.684;2022-12-07T14:17:16;5.20;99.90
3350;DHT22;1688;51.000;13.684;2022-12-07T14:19:49;5.30;99.90
3350;DHT22;1688;51.000;13.684;2022-12-07T14:22:33;5.40;99.90
3350;DHT22;1688;51.000;13.684;2022-12-07T14:25:19;5.30;99.90
3350;DHT22;1688;51.000;13.684;2022-12-07T14:27:54;5.20;99.90
3350;DHT22;1688;51.000;13.684;2022-12-07T14:30:32;5.20;99.90
3350;DHT22;1688;51.000;13.684;2022-12-07T14:33:07;5.20;99.90
3350;DHT22;1688;51.000;13.684;2022-12-07T14:35:39;5.20;99.90
3350;DHT22;1688;51.000;13.684;2022-12-07T14:38:11;5.00;99.90
3350;DHT22;1688;51.000;13.684;2022-12-07T14:40:43;5.00;99.90
3350;DHT22;1688;51.000;13.684;2022-12-07T14:43:16;4.90;99.90
3350;DHT22;1688;51.000;13.684;2022-12-07T14:45:48;4.90;99.90
3350;DHT22;1688;51.000;13.684;2022-12-07T14:48:20;4.80;99.90
3350;DHT22;1688;51.000;13.684;2022-12-07T14:50:52;4.90;99.90
3350;DHT22;1688;51.000;13.684;2022-12-07T14:53:29;4.80;99.90
3350;DHT22;1688;51.000;13.684;2022-12-07T14:56:03;4.80;99.90
3350;DHT22;1688;51.000;13.684;2022-12-07T14:58:37;4.80;99.90
3350;DHT22;1688;51.000;13.684;2022-12-07T15:01:08;4.80;99.90
3350;DHT22;1688;51.000;13.684;2022-12-07T15:03:40;4.70;99.90
3350;DHT22;1688;51.000;13.684;2022-12-07T15:06:15;4.70;99.90
3350;DHT22;1688;51.000;13.684;2022-12-07T15:08:46;4.70;99.90
3350;DHT22;1688;51.000;13.684;2022-12-07T15:11:18;4.60;99.90
3350;DHT22;1688;51.000;13.684;2022-12-07T15:13:50;4.70;99.90
3350;DHT22;1688;51.000;13.684;2022-12-07T15:16:41;4.70;99.90
3350;DHT22;1688;51.000;13.684;2022-12-07T15:19:19;4.70;99.90
3350;DHT22;1688;51.000;13.684;2022-12-07T15:21:54;4.70;99.90
3350;DHT22;1688;51.000;13.684;2022-12-07T15:24:25;4.70;99.90
3350;DHT22;1688;51.000;13.684;2022-12-07T15:26:57;4.70;99.90
3350;DHT22;1688;51.000;13.684;2022-12-07T15:29:29;4.70;99.90
3350;DHT22;1688;51.000;13.684;2022-12-07T15:32:00;4.80;99.90
3350;DHT22;1688;51.000;13.684;2022-12-07T15:34:32;4.70;99.90
3350;DHT22;1688;51.000;13.684;2022-12-07T15:37:04;4.80;99.90
3350;DHT22;1688;51.000;13.684;2022-12-07T15:39:36;4.80;99.90
3350;DHT22;1688;51.000;13.684;2022-12-07T15:42:08;4.80;99.90
3350;DHT22;1688;51.000;13.684;2022-12-07T15:44:40;4.80;99.90
3350;DHT22;1688;51.000;13.684;2022-12-07T15:47:44;4.80;99.90
3350;DHT22;1688;51.000;13.684;2022-12-07T15:50:18;4.90;99.90
3350;DHT22;1688;51.000;13.684;2022-12-07T15:52:50;4.90;99.90
3350;DHT22;1688;51.000;13.684;2022-12-07T15:55:21;4.90;99.90
3350;DHT22;1688;51.000;13.684;2022-12-07T15:57:53;5.00;99.90
3350;DHT22;1688;51.000;13.684;2022-12-07T16:00:25;5.00;99.90
3350;DHT22;1688;51.000;13.684;2022-12-07T16:02:56;5.00;99.90
3350;DHT22;1688;51.000;13.684;2022-12-07T16:05:28;5.00;99.90
3350;DHT22;1688;51.000;13.684;2022-12-07T16:08:00;5.00;99.90
3350;DHT22;1688;51.000;13.684;2022-12-07T16:10:31;5.00;99.90
3350;DHT22;1688;51.000;13.684;2022-12-07T16:13:03;5.00;99.90
3350;DHT22;1688;51.000;13.684;2022-12-07T16:15:41;4.90;99.90
3350;DHT22;1688;51.000;13.684;2022-12-07T16:18:13;4.90;99.90
3350;DHT22;1688;51.000;13.684;2022-12-07T16:20:48;4.80;99.90
3350;DHT22;1688;51.000;13.684;2022-12-07T16:23:20;4.70;99.90
3350;DHT22;1688;51.000;13.684;2022-12-07T16:25:52;4.70;99.90
3350;DHT22;1688;51.000;13.684;2022-12-07T16:28:23;4.70;99.90
3350;DHT22;1688;51.000;13.684;2022-12-07T16:31:14;4.70;99.90
3350;DHT22;1688;51.000;13.684;2022-12-07T16:33:46;4.70;99.90
3350;DHT22;1688;51.000;13.684;2022-12-07T16:36:18;4.70;99.90
3350;DHT22;1688;51.000;13.684;2022-12-07T16:38:50;4.70;99.90
3350;DHT22;1688;51.000;13.684;2022-12-07T16:41:22;4.70;99.90
3350;DHT22;1688;51.000;13.684;2022-12-07T16:43:53;4.70;99.90
3350;DHT22;1688;51.000;13.684;2022-12-07T16:46:25;4.70;99.90
3350;DHT22;1688;51.000;13.684;2022-12-07T16:48:56;4.70;99.90
3350;DHT22;1688;51.000;13.684;2022-12-07T16:51:28;4.70;99.90
3350;DHT22;1688;51.000;13.684;2022-12-07T16:54:00;4.70;99.90
3350;DHT22;1688;51.000;13.684;2022-12-07T16:56:31;4.80;99.90
3350;DHT22;1688;51.000;13.684;2022-12-07T16:59:03;4.70;99.90
3350;DHT22;1688;51.000;13.684;2022-12-07T17:01:35;4.80;99.90
3350;DHT22;1688;51.000;13.684;2022-12-07T17:04:08;4.80;99.90
3350;DHT22;1688;51.000;13.684;2022-12-07T17:06:40;4.70;99.90
3350;DHT22;1688;51.000;13.684;2022-12-07T17:09:12;4.80;99.90
3350;DHT22;1688;51.000;13.684;2022-12-07T17:11:44;4.80;99.90
3350;DHT22;1688;51.000;13.684;2022-12-07T17:14:16;4.70;99.90
3350;DHT22;1688;51.000;13.684;2022-12-07T17:17:06;4.70;99.90
3350;DHT22;1688;51.000;13.684;2022-12-07T17:19:37;4.70;99.90
3350;DHT22;1688;51.000;13.684;2022-12-07T17:22:09;4.60;99.90
3350;DHT22;1688;51.000;13.684;2022-12-07T17:24:43;4.60;99.90
3350;DHT22;1688;51.000;13.684;2022-12-07T17:27:15;4.50;99.90
3350;DHT22;1688;51.000;13.684;2022-12-07T17:29:47;4.50;99.90
3350;DHT22;1688;51.000;13.684;2022-12-07T17:32:19;4.40;99.90
3350;DHT22;1688;51.000;13.684;2022-12-07T17:34:51;4.30;99.90
3350;DHT22;1688;51.000;13.684;2022-12-07T17:37:22;4.40;99.90
3350;DHT22;1688;51.000;13.684;2022-12-07T17:39:54;4.40;99.90
3350;DHT22;1688;51.000;13.684;2022-12-07T17:42:28;4.30;99.90
3350;DHT22;1688;51.000;13.684;2022-12-07T17:45:10;4.30;99.90
3350;DHT22;1688;51.000;13.684;2022-12-07T17:47:42;4.20;99.90
3350;DHT22;1688;51.000;13.684;2022-12-07T17:50:14;4.20;99.90
3350;DHT22;1688;51.000;13.684;2022-12-07T17:52:46;4.20;99.90
3350;DHT22;1688;51.000;13.684;2022-12-07T17:55:36;4.10;99.90
3350;DHT22;1688;51.000;13.684;2022-12-07T17:58:08;4.00;99.90
3350;DHT22;1688;51.000;13.684;2022-12-07T18:00:39;4.00;99.90
3350;DHT22;1688;51.000;13.684;2022-12-07T18:03:12;4.10;99.90
3350;DHT22;1688;51.000;13.684;2022-12-07T18:05:44;4.10;99.90
3350;DHT22;1688;51.000;13.684;2022-12-07T18:08:17;4.10;99.90
3350;DHT22;1688;51.000;13.684;2022-12-07T18:10:49;4.10;99.90
3350;DHT22;1688;51.000;13.684;2022-12-07T18:13:20;4.10;99.90
3350;DHT22;1688;51.000;13.684;2022-12-07T18:16:12;4.00;99.90
3350;DHT22;1688;51.000;13.684;2022-12-07T18:18:45;3.90;99.90
3350;DHT22;1688;51.000;13.684;2022-12-07T18:21:23;3.90;99.90
3350;DHT22;1688;51.000;13.684;2022-12-07T18:23:58;3.90;99.90
3350;DHT22;1688;51.000;13.684;2022-12-07T18:26:33;3.90;99.90
3350;DHT22;1688;51.000;13.684;2022-12-07T18:29:09;3.90;99.90
3350;DHT22;1688;51.000;13.684;2022-12-07T18:31:44;3.90;99.90
3350;DHT22;1688;51.000;13.684;2022-12-07T18:34:18;3.90;99.90
3350;DHT22;1688;51.000;13.684;2022-12-07T18:36:50;3.90;99.90
3350;DHT22;1688;51.000;13.684;2022-12-07T18:39:21;3.90;99.90
3350;DHT22;1688;51.000;13.684;2022-12-07T18:41:53;3.90;99.90
3350;DHT22;1688;51.000;13.684;2022-12-07T18:44:25;3.90;99.90
3350;DHT22;1688;51.000;13.684;2022-12-07T18:46:56;3.90;99.90
3350;DHT22;1688;51.000;13.684;2022-12-07T18:49:28;3.90;99.90
3350;DHT22;1688;51.000;13.684;2022-12-07T18:51:59;4.00;99.90
3350;DHT22;1688;51.000;13.684;2022-12-07T18:54:31;4.00;99.90